Time;durP1;ratioP1;P1;durP2;ratioP2;P2;SDS_P1;SDS_P2;PMS_P1;PMS_P2;Temp;Humidity;BMP_temperature;BMP_pressure;BME280_temperature;BME280_humidity;BME280_pressure;Samples;Min_cycle;Max_cycle;Signal;HPM_P1;HPM_P2
2023/05/28 00:00:27;;;;;;;17.50;7.30;;;11.50;99.90;;;;;;5070419;28;20055;-63
2023/05/28 00:02:52;;;;;;;20.40;7.80;;;11.40;99.90;;;;;;5071633;28;20413;-63
2023/05/28 00:05:18;;;;;;;21.13;7.00;;;11.40;99.90;;;;;;5071795;28;20350;-64
2023/05/28 00:07:44;;;;;;;18.15;6.60;;;11.40;99.90;;;;;;5070248;28;20040;-66
2023/05/28 00:10:10;;;;;;;18.48;6.10;;;11.40;99.90;;;;;;5071241;28;20044;-63
2023/05/28 00:12:36;;;;;;;16.40;5.97;;;11.40;99.90;;;;;;5071615;28;20032;-63
2023/05/28 00:15:02;;;;;;;16.83;5.88;;;11.40;99.90;;;;;;5069721;28;20071;-63
2023/05/28 00:17:28;;;;;;;17.23;6.05;;;11.40;99.90;;;;;;5071465;28;20040;-61
2023/05/28 00:19:53;;;;;;;17.33;6.38;;;11.30;99.90;;;;;;5071394;28;20119;-62
2023/05/28 00:22:19;;;;;;;16.15;5.72;;;11.30;99.90;;;;;;5070017;28;20037;-60
2023/05/28 00:24:45;;;;;;;16.23;5.75;;;11.30;99.90;;;;;;5070153;28;20032;-61
2023/05/28 00:27:10;;;;;;;15.15;6.13;;;11.30;99.90;;;;;;5071392;28;20029;-61
2023/05/28 00:29:36;;;;;;;14.27;5.47;;;11.30;99.90;;;;;;5071587;28;20024;-63
2023/05/28 00:32:02;;;;;;;21.58;5.70;;;11.30;99.90;;;;;;5071165;28;20044;-61
2023/05/28 00:34:28;;;;;;;17.67;5.55;;;11.30;99.90;;;;;;5070065;28;20036;-61
2023/05/28 00:36:54;;;;;;;18.48;5.35;;;11.30;99.90;;;;;;5071348;28;20036;-61
2023/05/28 00:39:19;;;;;;;17.42;5.82;;;11.20;99.90;;;;;;5069642;28;20072;-62
2023/05/28 00:41:46;;;;;;;12.88;5.50;;;11.30;99.90;;;;;;5071240;28;20036;-62
2023/05/28 00:44:12;;;;;;;18.30;6.00;;;11.20;99.90;;;;;;5071244;28;20482;-62
2023/05/28 00:46:44;;;;;;;14.27;5.72;;;11.20;99.90;;;;;;5069740;28;20051;-61
2023/05/28 00:49:10;;;;;;;18.92;6.45;;;11.20;99.90;;;;;;5069466;28;20049;-62
2023/05/28 00:51:36;;;;;;;14.65;5.10;;;11.20;99.90;;;;;;5070299;28;20418;-61
2023/05/28 00:54:03;;;;;;;14.30;6.00;;;11.20;99.90;;;;;;5071767;28;20135;-63
2023/05/28 00:56:31;;;;;;;12.70;5.03;;;11.10;99.90;;;;;;5069705;28;20518;-62
2023/05/28 00:58:57;;;;;;;16.02;4.90;;;11.10;99.90;;;;;;5070500;28;20451;-63
2023/05/28 01:01:27;;;;;;;13.57;5.32;;;11.00;99.90;;;;;;5068963;28;20086;-63
2023/05/28 01:03:53;;;;;;;15.55;5.40;;;11.00;99.90;;;;;;5070426;28;20449;-63
2023/05/28 01:06:23;;;;;;;19.27;5.90;;;11.00;99.90;;;;;;5070455;28;20036;-65
2023/05/28 01:08:50;;;;;;;12.95;4.95;;;11.00;99.90;;;;;;5069490;28;20103;-62
2023/05/28 01:11:21;;;;;;;12.45;5.00;;;11.00;99.90;;;;;;5068602;28;20059;-63
2023/05/28 01:13:47;;;;;;;14.45;5.05;;;10.90;99.90;;;;;;5069595;28;20456;-62
2023/05/28 01:16:13;;;;;;;16.08;5.35;;;10.90;99.90;;;;;;5068916;28;20052;-64
2023/05/28 01:18:41;;;;;;;14.85;5.45;;;10.90;99.90;;;;;;5069188;28;20090;-61
2023/05/28 01:21:08;;;;;;;12.90;5.10;;;10.90;99.90;;;;;;5070631;28;20037;-62
2023/05/28 01:23:45;;;;;;;14.68;5.88;;;10.90;99.90;;;;;;5070741;28;20079;-62
2023/05/28 01:26:13;;;;;;;14.65;5.20;;;10.90;99.90;;;;;;5070588;28;20076;-61
2023/05/28 01:28:44;;;;;;;12.88;4.78;;;10.90;99.90;;;;;;5068849;28;20047;-63
2023/05/28 01:31:10;;;;;;;18.00;6.45;;;10.90;99.90;;;;;;5069078;28;20094;-62
2023/05/28 01:33:36;;;;;;;16.67;5.63;;;10.80;99.90;;;;;;5069878;28;20366;-62
2023/05/28 01:36:26;;;;;;;18.10;5.18;;;10.80;99.90;;;;;;5070435;28;20036;-62
2023/05/28 01:38:53;;;;;;;15.40;5.63;;;10.80;99.90;;;;;;5070667;28;20081;-62
2023/05/28 01:41:20;;;;;;;12.55;5.10;;;10.80;99.90;;;;;;5069514;28;20206;-65
2023/05/28 01:43:46;;;;;;;13.05;5.25;;;10.80;99.90;;;;;;5069637;28;20114;-63
2023/05/28 01:46:12;;;;;;;13.52;5.70;;;10.80;99.90;;;;;;5068562;28;20177;-62
2023/05/28 01:48:38;;;;;;;17.27;5.70;;;10.80;99.90;;;;;;5069297;28;20039;-62
2023/05/28 01:51:05;;;;;;;15.55;5.65;;;10.80;99.90;;;;;;5070688;28;20086;-61
2023/05/28 01:53:31;;;;;;;17.60;5.68;;;10.80;99.90;;;;;;5070468;28;20040;-63
2023/05/28 01:55:57;;;;;;;20.63;6.93;;;10.80;99.90;;;;;;5069597;28;20047;-61
2023/05/28 01:58:23;;;;;;;15.48;5.57;;;10.90;99.90;;;;;;5069913;28;20399;-61
2023/05/28 02:01:01;;;;;;;15.68;5.55;;;10.80;99.90;;;;;;5069907;28;20433;-61
2023/05/28 02:03:26;;;;;;;15.00;5.00;;;10.90;99.90;;;;;;5051504;28;20111;-63
2023/05/28 02:05:52;;;;;;;16.08;5.75;;;10.90;99.90;;;;;;5069908;28;20162;-63
2023/05/28 02:08:18;;;;;;;15.93;5.90;;;10.90;99.90;;;;;;5069494;28;20102;-64
2023/05/28 02:10:43;;;;;;;15.90;5.85;;;10.80;99.90;;;;;;5071509;28;20390;-62
2023/05/28 02:13:09;;;;;;;16.55;5.43;;;10.90;99.90;;;;;;5055579;28;20055;-63
2023/05/28 02:15:35;;;;;;;16.35;6.18;;;10.90;99.90;;;;;;5072232;28;20032;-60
2023/05/28 02:18:00;;;;;;;15.27;5.57;;;10.90;99.90;;;;;;5072334;28;20114;-64
2023/05/28 02:20:26;;;;;;;15.98;6.15;;;10.90;99.90;;;;;;5072031;28;20094;-62
2023/05/28 02:22:51;;;;;;;12.65;5.40;;;10.80;99.90;;;;;;5073667;28;20032;-63
2023/05/28 02:25:17;;;;;;;14.18;5.10;;;10.80;99.90;;;;;;5073458;28;20426;-61
2023/05/28 02:27:43;;;;;;;15.65;6.03;;;10.80;99.90;;;;;;5072120;28;20037;-63
2023/05/28 02:30:13;;;;;;;16.00;5.65;;;10.90;99.90;;;;;;5073571;28;20063;-63
2023/05/28 02:32:39;;;;;;;16.25;5.45;;;10.80;99.90;;;;;;5073349;28;20036;-62
2023/05/28 02:35:05;;;;;;;16.40;5.85;;;10.80;99.90;;;;;;5072077;28;20044;-63
2023/05/28 02:37:31;;;;;;;14.52;5.35;;;10.80;99.90;;;;;;5072905;28;20041;-63
2023/05/28 02:39:57;;;;;;;14.57;5.40;;;10.80;99.90;;;;;;5071717;28;20040;-63
2023/05/28 02:42:22;;;;;;;11.95;5.57;;;10.80;99.90;;;;;;5072978;28;20514;-64
2023/05/28 02:44:48;;;;;;;17.38;5.93;;;10.80;99.90;;;;;;5073277;28;20043;-61
2023/05/28 02:47:13;;;;;;;15.57;5.72;;;10.70;99.90;;;;;;5072097;28;20089;-64
2023/05/28 02:49:39;;;;;;;15.43;5.75;;;10.80;99.90;;;;;;5071413;28;20032;-63
2023/05/28 02:52:05;;;;;;;16.98;6.50;;;10.70;99.90;;;;;;5071836;28;20057;-61
2023/05/28 02:54:31;;;;;;;16.73;5.90;;;10.70;99.90;;;;;;5071349;28;20151;-63
2023/05/28 02:56:57;;;;;;;14.70;6.15;;;10.70;99.90;;;;;;5071474;28;20047;-63
2023/05/28 02:59:23;;;;;;;17.67;6.82;;;10.70;99.90;;;;;;5073153;28;20080;-61
2023/05/28 03:01:48;;;;;;;17.20;6.50;;;10.70;99.90;;;;;;5073572;28;20072;-62
2023/05/28 03:04:14;;;;;;;14.38;6.03;;;10.70;99.90;;;;;;5072437;28;20036;-63
2023/05/28 03:06:41;;;;;;;14.88;5.30;;;10.70;99.90;;;;;;5071510;28;20146;-62
2023/05/28 03:09:06;;;;;;;15.10;6.22;;;10.70;99.90;;;;;;5072665;28;20048;-62
2023/05/28 03:11:32;;;;;;;16.83;6.18;;;10.70;99.90;;;;;;5071160;28;20036;-63
2023/05/28 03:13:58;;;;;;;14.65;5.72;;;10.70;99.90;;;;;;5072613;28;20469;-62
2023/05/28 03:16:25;;;;;;;16.58;6.25;;;10.70;99.90;;;;;;5071650;28;20063;-62
2023/05/28 03:18:51;;;;;;;17.30;6.15;;;10.70;99.90;;;;;;5072626;28;20044;-64
2023/05/28 03:21:17;;;;;;;13.85;5.70;;;10.70;99.90;;;;;;5071570;28;20398;-61
2023/05/28 03:23:42;;;;;;;16.38;6.28;;;10.70;99.90;;;;;;5071562;28;20082;-60
2023/05/28 03:26:08;;;;;;;13.65;5.55;;;10.70;99.90;;;;;;5071203;28;20097;-62
2023/05/28 03:28:34;;;;;;;14.60;5.38;;;10.70;99.90;;;;;;5072516;28;20039;-61
2023/05/28 03:31:01;;;;;;;18.55;5.95;;;10.70;99.90;;;;;;5072165;28;20115;-62
2023/05/28 03:33:27;;;;;;;15.63;5.68;;;10.70;99.90;;;;;;5072476;28;20041;-62
2023/05/28 03:35:52;;;;;;;17.50;5.40;;;10.70;99.90;;;;;;5071207;28;20453;-61
2023/05/28 03:38:18;;;;;;;21.65;6.10;;;10.70;99.90;;;;;;5072344;28;20039;-64
2023/05/28 03:40:43;;;;;;;15.60;6.00;;;10.70;99.90;;;;;;5072803;28;20055;-61
2023/05/28 03:43:09;;;;;;;14.60;5.65;;;10.70;99.90;;;;;;5072425;28;20088;-65
2023/05/28 03:45:35;;;;;;;14.60;5.00;;;10.70;99.90;;;;;;5070680;28;20048;-61
2023/05/28 03:48:02;;;;;;;14.85;6.05;;;10.80;99.90;;;;;;5071757;28;20036;-62
2023/05/28 03:50:28;;;;;;;17.00;5.30;;;10.70;99.90;;;;;;5070797;28;20495;-63
2023/05/28 03:52:54;;;;;;;18.02;5.95;;;10.70;99.90;;;;;;5071628;28;20044;-62
2023/05/28 03:55:20;;;;;;;13.70;5.47;;;10.70;99.90;;;;;;5072031;28;20064;-63
2023/05/28 03:57:46;;;;;;;12.00;5.32;;;10.70;99.90;;;;;;5070316;28;21166;-60
2023/05/28 04:00:13;;;;;;;15.25;5.50;;;10.70;99.90;;;;;;5070339;28;20037;-63
2023/05/28 04:02:39;;;;;;;16.08;5.65;;;10.70;99.90;;;;;;5070305;28;20068;-63
2023/05/28 04:05:05;;;;;;;15.32;5.32;;;10.60;99.90;;;;;;5070261;28;20095;-63
2023/05/28 04:07:31;;;;;;;14.90;5.88;;;10.60;99.90;;;;;;5054240;28;20121;-62
2023/05/28 04:09:56;;;;;;;13.45;5.53;;;10.60;99.90;;;;;;5071312;28;20032;-63
2023/05/28 04:12:22;;;;;;;14.60;5.22;;;10.60;99.90;;;;;;5070634;28;20077;-62
2023/05/28 04:14:47;;;;;;;22.98;6.70;;;10.60;99.90;;;;;;5070085;28;20060;-62
2023/05/28 04:17:13;;;;;;;16.42;5.30;;;10.60;99.90;;;;;;5071905;28;20068;-62
2023/05/28 04:19:40;;;;;;;16.67;6.60;;;10.60;99.90;;;;;;5070179;28;20048;-63
2023/05/28 04:22:07;;;;;;;17.88;5.80;;;10.60;99.90;;;;;;5070059;28;20498;-62
2023/05/28 04:24:33;;;;;;;15.93;5.55;;;10.60;99.90;;;;;;5070675;28;20131;-64
2023/05/28 04:26:59;;;;;;;16.48;5.80;;;10.60;99.90;;;;;;5069702;28;20111;-60
2023/05/28 04:29:28;;;;;;;21.80;6.13;;;10.60;99.90;;;;;;5070340;28;20111;-62
2023/05/28 04:31:54;;;;;;;19.02;5.72;;;10.60;99.90;;;;;;5053862;28;20056;-62
2023/05/28 04:34:20;;;;;;;16.38;6.20;;;10.60;99.90;;;;;;5069544;28;20056;-63
2023/05/28 04:36:48;;;;;;;16.08;5.30;;;10.70;99.90;;;;;;5070456;28;20036;-64
2023/05/28 04:39:14;;;;;;;17.67;6.03;;;10.70;99.90;;;;;;5069503;28;20052;-64
2023/05/28 04:41:40;;;;;;;14.13;5.78;;;10.90;99.90;;;;;;5070840;28;20036;-62
2023/05/28 04:44:06;;;;;;;14.35;5.28;;;11.00;99.90;;;;;;5070993;28;20036;-61
2023/05/28 04:46:33;;;;;;;14.60;5.88;;;11.10;99.90;;;;;;5070088;28;20044;-63
2023/05/28 04:48:58;;;;;;;16.90;5.28;;;11.20;99.90;;;;;;5070415;28;20058;-64
2023/05/28 04:51:24;;;;;;;11.18;5.13;;;11.30;99.90;;;;;;5071550;28;20119;-61
2023/05/28 04:53:50;;;;;;;15.98;5.13;;;11.40;99.90;;;;;;5071387;28;20036;-61
2023/05/28 04:56:16;;;;;;;17.20;5.40;;;11.40;99.90;;;;;;5069344;28;20063;-61
2023/05/28 04:58:42;;;;;;;15.57;6.10;;;11.60;99.90;;;;;;5052863;28;20040;-62
2023/05/28 05:01:07;;;;;;;19.98;5.53;;;11.70;99.90;;;;;;5071080;28;20086;-62
2023/05/28 05:03:34;;;;;;;15.00;5.45;;;11.70;99.90;;;;;;5071092;28;20135;-60
2023/05/28 05:05:59;;;;;;;15.07;5.15;;;11.90;99.90;;;;;;5071526;28;20039;-63
2023/05/28 05:08:25;;;;;;;15.23;5.20;;;12.00;99.90;;;;;;5071080;28;20040;-61
2023/05/28 05:10:51;;;;;;;15.32;5.70;;;12.10;99.90;;;;;;5070740;28;20048;-62
2023/05/28 05:13:17;;;;;;;18.17;5.78;;;12.20;99.90;;;;;;5068845;28;20059;-63
2023/05/28 05:15:42;;;;;;;12.82;5.10;;;12.30;99.90;;;;;;5069146;28;20036;-60
2023/05/28 05:18:08;;;;;;;15.57;5.30;;;12.40;99.90;;;;;;5070378;28;20478;-63
2023/05/28 05:20:34;;;;;;;17.30;6.07;;;12.50;99.90;;;;;;5068689;28;20052;-64
2023/05/28 05:22:59;;;;;;;12.75;5.18;;;12.60;99.90;;;;;;5070497;28;20390;-64
2023/05/28 05:25:25;;;;;;;13.15;5.30;;;12.60;99.90;;;;;;5069134;28;20054;-62
2023/05/28 05:27:50;;;;;;;17.48;5.50;;;12.70;99.90;;;;;;5070798;28;20033;-64
2023/05/28 05:30:16;;;;;;;12.85;5.00;;;12.90;99.90;;;;;;5068972;28;20080;-63
2023/05/28 05:32:42;;;;;;;15.90;5.75;;;12.90;99.90;;;;;;5068586;28;20129;-62
2023/05/28 05:35:09;;;;;;;13.95;5.00;;;12.90;99.90;;;;;;5068726;28;20048;-60
2023/05/28 05:37:35;;;;;;;14.65;5.47;;;12.90;99.90;;;;;;5068475;28;20052;-62
2023/05/28 05:40:04;;;;;;;17.02;5.72;;;13.00;99.90;;;;;;5070137;28;20143;-60
2023/05/28 05:42:30;;;;;;;11.35;4.93;;;13.10;99.90;;;;;;5070059;28;20395;-62
2023/05/28 05:44:55;;;;;;;15.18;5.93;;;13.30;99.90;;;;;;5067999;28;20123;-62
2023/05/28 05:47:21;;;;;;;17.70;5.55;;;13.40;99.90;;;;;;5068897;28;20442;-61
2023/05/28 05:49:47;;;;;;;16.15;5.82;;;13.50;99.90;;;;;;5069220;28;20135;-64
2023/05/28 05:52:12;;;;;;;15.65;5.57;;;13.70;99.90;;;;;;5068536;28;20509;-63
2023/05/28 05:54:38;;;;;;;13.57;5.38;;;13.80;99.90;;;;;;5068104;28;20127;-63
2023/05/28 05:57:04;;;;;;;13.00;4.95;;;14.00;99.90;;;;;;5068767;28;20048;-62
2023/05/28 05:59:30;;;;;;;15.45;5.28;;;14.00;99.90;;;;;;5069006;28;20462;-64
2023/05/28 06:01:56;;;;;;;16.77;5.80;;;14.00;99.90;;;;;;5070612;28;20051;-61
2023/05/28 06:04:21;;;;;;;13.25;4.75;;;14.10;99.90;;;;;;5070070;28;20509;-63
2023/05/28 06:06:47;;;;;;;15.43;6.15;;;14.20;99.90;;;;;;5068302;28;20036;-60
2023/05/28 06:09:12;;;;;;;13.45;5.38;;;14.30;99.90;;;;;;5069123;28;20037;-61
2023/05/28 06:11:38;;;;;;;13.18;4.95;;;14.40;99.90;;;;;;5070067;28;20044;-63
2023/05/28 06:14:04;;;;;;;12.65;5.00;;;14.50;99.90;;;;;;5070337;28;20040;-64
2023/05/28 06:16:30;;;;;;;14.38;5.88;;;14.60;99.90;;;;;;5069475;28;20526;-61
2023/05/28 06:18:55;;;;;;;14.82;5.57;;;14.70;99.90;;;;;;5069841;28;20622;-63
2023/05/28 06:21:21;;;;;;;10.85;4.60;;;14.80;99.90;;;;;;5070231;28;20174;-61
2023/05/28 06:23:47;;;;;;;15.80;4.97;;;14.70;99.90;;;;;;5069826;28;20033;-64
2023/05/28 06:26:13;;;;;;;11.43;4.50;;;14.80;99.90;;;;;;5070654;28;20044;-62
2023/05/28 06:28:41;;;;;;;13.77;4.75;;;14.80;99.90;;;;;;5068967;28;20063;-62
2023/05/28 06:31:10;;;;;;;9.13;4.43;;;14.80;99.90;;;;;;5068551;28;20056;-63
2023/05/28 06:33:35;;;;;;;11.98;3.80;;;14.90;99.90;;;;;;5070345;28;20499;-62
2023/05/28 06:36:01;;;;;;;13.30;4.28;;;15.00;99.90;;;;;;5070304;28;20048;-62
2023/05/28 06:38:27;;;;;;;13.93;4.53;;;15.20;99.90;;;;;;5069135;28;20475;-65
2023/05/28 06:40:52;;;;;;;11.10;4.03;;;15.30;99.90;;;;;;5069633;28;20070;-61
2023/05/28 06:43:18;;;;;;;11.82;4.13;;;15.40;99.90;;;;;;5068179;28;20114;-61
2023/05/28 06:45:44;;;;;;;13.20;4.40;;;15.50;99.90;;;;;;5067932;28;20491;-61
2023/05/28 06:48:10;;;;;;;10.63;5.03;;;15.70;99.90;;;;;;5067935;28;20036;-60
2023/05/28 06:50:35;;;;;;;7.75;3.65;;;15.90;99.90;;;;;;5069378;28;20059;-62
2023/05/28 06:53:02;;;;;;;11.10;4.32;;;16.10;99.90;;;;;;5069037;28;20399;-62
2023/05/28 06:55:27;;;;;;;9.60;3.85;;;16.30;99.90;;;;;;5067808;28;20055;-62
2023/05/28 06:57:53;;;;;;;15.27;4.53;;;16.60;99.90;;;;;;5071476;28;20421;-63
2023/05/28 07:00:21;;;;;;;11.88;4.88;;;16.80;99.90;;;;;;5072671;28;20116;-61
2023/05/28 07:02:46;;;;;;;12.15;4.68;;;16.90;99.90;;;;;;5072709;28;20051;-62
2023/05/28 07:05:12;;;;;;;18.20;4.72;;;17.00;99.90;;;;;;5071577;28;20044;-62
2023/05/28 07:07:38;;;;;;;12.70;4.45;;;17.10;99.90;;;;;;5071557;28;20066;-63
2023/05/28 07:10:04;;;;;;;14.88;4.13;;;17.20;99.90;;;;;;5072368;28;20079;-60
2023/05/28 07:12:30;;;;;;;12.98;4.10;;;17.40;99.90;;;;;;5071323;28;20037;-62
2023/05/28 07:14:56;;;;;;;12.85;4.70;;;17.40;99.90;;;;;;5072725;28;20044;-61
2023/05/28 07:17:21;;;;;;;10.60;4.15;;;17.40;99.90;;;;;;5071383;28;20093;-61
2023/05/28 07:19:48;;;;;;;13.85;4.82;;;17.40;99.90;;;;;;5073022;28;20040;-61
2023/05/28 07:22:13;;;;;;;12.85;4.32;;;17.60;99.90;;;;;;5054531;28;20052;-63
2023/05/28 07:24:39;;;;;;;9.02;4.13;;;17.80;99.90;;;;;;5071210;28;20054;-64
2023/05/28 07:27:06;;;;;;;12.98;4.50;;;17.90;99.90;;;;;;5072157;28;20396;-62
2023/05/28 07:29:31;;;;;;;12.13;4.28;;;18.00;99.90;;;;;;5054485;28;20055;-64
2023/05/28 07:31:57;;;;;;;9.93;4.18;;;18.00;99.90;;;;;;5070740;28;20403;-63
2023/05/28 07:34:23;;;;;;;12.10;4.85;;;18.20;99.90;;;;;;5072475;28;20029;-63
2023/05/28 07:36:48;;;;;;;10.98;3.88;;;18.20;99.90;;;;;;5072074;28;20037;-64
2023/05/28 07:39:14;;;;;;;11.30;4.40;;;18.40;99.90;;;;;;5070877;28;20072;-64
2023/05/28 07:41:40;;;;;;;9.90;4.05;;;18.40;99.90;;;;;;5071924;28;20041;-63
2023/05/28 07:44:06;;;;;;;11.38;4.45;;;18.40;99.90;;;;;;5071597;28;20471;-62
2023/05/28 07:46:32;;;;;;;14.65;5.07;;;18.50;99.90;;;;;;5072448;28;20043;-63
2023/05/28 07:48:57;;;;;;;9.15;4.25;;;18.50;99.90;;;;;;5072085;28;20037;-61
2023/05/28 07:51:26;;;;;;;15.13;5.20;;;18.60;99.90;;;;;;5070738;28;20036;-64
2023/05/28 07:53:52;;;;;;;11.20;4.70;;;18.70;99.90;;;;;;5071984;28;20044;-64
2023/05/28 07:56:18;;;;;;;11.65;4.82;;;18.70;99.90;;;;;;5070353;28;20032;-62
2023/05/28 07:58:45;;;;;;;13.98;4.30;;;18.80;99.90;;;;;;5070572;28;20063;-63
2023/05/28 08:01:10;;;;;;;11.02;4.75;;;19.00;99.90;;;;;;5071503;28;20085;-62
2023/05/28 08:03:36;;;;;;;12.55;5.07;;;19.10;99.90;;;;;;5071674;28;20444;-64
2023/05/28 08:06:03;;;;;;;9.38;4.50;;;19.30;99.90;;;;;;5070282;28;20036;-65
2023/05/28 08:08:28;;;;;;;11.57;4.78;;;19.40;99.90;;;;;;5071279;28;20067;-61
2023/05/28 08:10:54;;;;;;;9.55;4.60;;;19.50;99.90;;;;;;5072112;28;20452;-63
2023/05/28 08:13:20;;;;;;;9.98;4.18;;;19.70;99.90;;;;;;5053367;28;20066;-62
2023/05/28 08:15:46;;;;;;;16.25;4.63;;;19.70;99.90;;;;;;5072406;28;20111;-61
2023/05/28 08:18:12;;;;;;;11.30;4.70;;;19.80;99.90;;;;;;5071318;28;20048;-64
2023/05/28 08:20:38;;;;;;;11.60;4.72;;;20.00;99.90;;;;;;5071482;28;20037;-60
2023/05/28 08:23:04;;;;;;;10.52;4.95;;;20.10;99.90;;;;;;5069915;28;20082;-63
2023/05/28 08:25:30;;;;;;;11.48;4.85;;;20.10;99.90;;;;;;5070992;28;20083;-62
2023/05/28 08:27:55;;;;;;;12.93;5.10;;;20.20;99.50;;;;;;5070490;28;20028;-62
2023/05/28 08:30:21;;;;;;;13.18;4.55;;;20.20;98.80;;;;;;5071593;28;20253;-62
2023/05/28 08:32:47;;;;;;;11.05;4.70;;;19.90;98.20;;;;;;5071920;28;20041;-64
2023/05/28 08:35:13;;;;;;;9.65;4.82;;;20.10;98.80;;;;;;5070345;28;20517;-63
2023/05/28 08:37:38;;;;;;;8.35;4.50;;;20.20;98.70;;;;;;5069807;28;20483;-63
2023/05/28 08:40:08;;;;;;;13.02;4.95;;;20.40;98.90;;;;;;5070999;28;20041;-63
2023/05/28 08:42:35;;;;;;;10.82;4.70;;;20.50;98.50;;;;;;5070099;28;20036;-64
2023/05/28 08:45:04;;;;;;;10.90;4.70;;;20.70;98.70;;;;;;5070257;28;20051;-63
2023/05/28 08:47:33;;;;;;;12.10;5.05;;;20.80;98.10;;;;;;5071146;28;20052;-64
2023/05/28 08:50:05;;;;;;;14.35;5.20;;;20.90;97.70;;;;;;5070865;28;20043;-60
2023/05/28 08:52:32;;;;;;;9.73;5.03;;;20.90;97.70;;;;;;5069571;28;20044;-65
2023/05/28 08:54:58;;;;;;;9.70;4.68;;;20.80;97.50;;;;;;5069065;28;20040;-62
2023/05/28 08:57:25;;;;;;;11.45;5.13;;;21.00;98.00;;;;;;5070897;28;20044;-64
2023/05/28 08:59:53;;;;;;;9.27;4.70;;;21.10;97.80;;;;;;5069439;28;20040;-63
2023/05/28 09:02:23;;;;;;;10.32;4.50;;;21.20;97.60;;;;;;5069174;28;20380;-63
2023/05/28 09:04:50;;;;;;;13.77;4.85;;;21.40;98.00;;;;;;5069266;28;20048;-60
2023/05/28 09:07:15;;;;;;;12.70;4.57;;;21.70;98.00;;;;;;5070587;28;20385;-61
2023/05/28 09:09:42;;;;;;;12.52;5.10;;;21.90;97.50;;;;;;5070259;28;20502;-64
2023/05/28 09:12:12;;;;;;;11.40;4.82;;;22.00;96.80;;;;;;5070358;28;20441;-61
2023/05/28 09:14:41;;;;;;;13.57;5.13;;;22.20;96.80;;;;;;5070435;28;20083;-61
2023/05/28 09:17:09;;;;;;;9.98;5.20;;;22.20;96.20;;;;;;5069078;28;20036;-63
2023/05/28 09:19:35;;;;;;;10.68;4.95;;;22.20;95.30;;;;;;5070123;28;20036;-63
2023/05/28 09:22:03;;;;;;;10.43;5.28;;;22.30;95.80;;;;;;5069911;28;20052;-65
2023/05/28 09:24:30;;;;;;;10.70;5.50;;;22.30;94.90;;;;;;5069421;28;20075;-61
2023/05/28 09:26:57;;;;;;;10.32;4.50;;;22.40;95.40;;;;;;5069564;28;20491;-62
2023/05/28 09:29:24;;;;;;;12.45;5.13;;;22.60;95.20;;;;;;5069386;28;20032;-64
2023/05/28 09:32:00;;;;;;;10.57;5.18;;;22.50;94.70;;;;;;5068758;28;20093;-63
2023/05/28 09:34:30;;;;;;;12.43;5.00;;;22.60;94.60;;;;;;5070141;28;20044;-64
2023/05/28 09:37:03;;;;;;;10.93;4.63;;;22.70;94.60;;;;;;5070777;28;20056;-62
2023/05/28 09:39:30;;;;;;;12.52;5.15;;;22.80;93.70;;;;;;5068501;28;20093;-62
2023/05/28 09:42:06;;;;;;;11.18;4.90;;;23.10;94.60;;;;;;5068558;28;20059;-62
2023/05/28 09:44:33;;;;;;;10.10;4.32;;;23.10;93.10;;;;;;5068383;28;20080;-61
2023/05/28 09:46:59;;;;;;;10.27;4.22;;;23.20;93.20;;;;;;5069330;28;20036;-63
2023/05/28 09:49:28;;;;;;;13.43;4.40;;;23.20;92.10;;;;;;5070830;28;20535;-62
2023/05/28 09:51:57;;;;;;;9.10;3.97;;;23.10;91.50;;;;;;5069120;28;20036;-63
2023/05/28 09:54:28;;;;;;;9.13;3.83;;;23.20;91.90;;;;;;5069815;28;20121;-62
2023/05/28 09:56:57;;;;;;;9.68;4.30;;;23.20;91.60;;;;;;5052382;28;20037;-63
2023/05/28 09:59:25;;;;;;;13.57;4.40;;;23.40;91.90;;;;;;5070023;28;20037;-64
2023/05/28 10:02:10;;;;;;;9.68;4.15;;;23.50;91.30;;;;;;5069670;28;20399;-62
2023/05/28 10:04:38;;;;;;;8.00;3.80;;;23.60;91.10;;;;;;5069557;28;20465;-61
2023/05/28 10:07:08;;;;;;;11.00;4.75;;;23.70;91.40;;;;;;5068330;28;20088;-65
2023/05/28 10:09:35;;;;;;;10.38;4.78;;;23.70;90.60;;;;;;5069000;28;20056;-65
2023/05/28 10:12:16;;;;;;;11.32;4.47;;;23.70;89.70;;;;;;5069518;28;20059;-63
2023/05/28 10:14:43;;;;;;;9.57;4.07;;;23.80;89.30;;;;;;5068337;28;20054;-61
2023/05/28 10:17:10;;;;;;;9.02;3.53;;;23.70;88.30;;;;;;5068466;28;20144;-63
2023/05/28 10:19:36;;;;;;;7.68;4.20;;;23.70;87.60;;;;;;5069188;28;20453;-64
2023/05/28 10:22:02;;;;;;;9.30;3.53;;;23.80;86.30;;;;;;5068505;28;20086;-66
2023/05/28 10:24:30;;;;;;;10.27;4.03;;;23.90;85.60;;;;;;5068082;28;20040;-63
2023/05/28 10:26:55;;;;;;;8.27;3.72;;;23.90;82.10;;;;;;5068749;28;20511;-63
2023/05/28 10:29:21;;;;;;;8.45;3.60;;;24.00;82.00;;;;;;5069887;28;20048;-61
2023/05/28 10:32:02;;;;;;;9.20;3.50;;;24.10;80.70;;;;;;5069987;28;20557;-65
2023/05/28 10:34:32;;;;;;;7.63;4.03;;;24.20;77.40;;;;;;5074330;28;20092;-64
2023/05/28 10:37:01;;;;;;;10.68;5.05;;;24.10;77.50;;;;;;5073265;28;20029;-64
2023/05/28 10:39:27;;;;;;;10.32;4.43;;;24.10;76.10;;;;;;5072125;28;20094;-62
2023/05/28 10:41:56;;;;;;;6.25;3.97;;;24.30;75.90;;;;;;5071727;28;20388;-63
2023/05/28 10:44:22;;;;;;;9.73;4.70;;;24.40;74.80;;;;;;5073427;28;20048;-61
2023/05/28 10:46:55;;;;;;;8.93;4.50;;;24.40;75.60;;;;;;5072895;28;20098;-63
2023/05/28 10:49:21;;;;;;;8.23;4.40;;;24.30;72.10;;;;;;5073315;28;20392;-64
2023/05/28 10:52:00;;;;;;;6.78;4.20;;;24.40;74.20;;;;;;5073592;28;20040;-62
2023/05/28 10:54:29;;;;;;;9.73;4.10;;;24.60;74.70;;;;;;5072204;28;20139;-63
2023/05/28 10:57:13;;;;;;;6.65;3.83;;;24.90;73.60;;;;;;5071596;28;20698;-61
2023/05/28 10:59:58;;;;;;;7.80;4.32;;;24.90;72.10;;;;;;5071641;28;20084;-62
2023/05/28 11:02:26;;;;;;;7.25;4.03;;;24.70;72.30;;;;;;5073146;28;20036;-64
2023/05/28 11:04:56;;;;;;;7.22;3.85;;;24.70;71.80;;;;;;5071368;28;20041;-62
2023/05/28 11:07:29;;;;;;;7.85;4.63;;;24.40;71.80;;;;;;5072089;28;20029;-64
2023/05/28 11:09:56;;;;;;;8.27;4.20;;;24.60;72.20;;;;;;5072244;28;20036;-62
2023/05/28 11:12:25;;;;;;;6.80;4.10;;;24.40;70.10;;;;;;5073547;28;20037;-63
2023/05/28 11:14:51;;;;;;;8.20;4.40;;;24.40;70.80;;;;;;5072423;28;20151;-63
2023/05/28 11:17:17;;;;;;;7.47;4.10;;;24.60;71.70;;;;;;5071533;28;20064;-62
2023/05/28 11:19:45;;;;;;;8.05;4.13;;;24.70;71.20;;;;;;5071458;28;20044;-64
2023/05/28 11:22:12;;;;;;;8.35;4.20;;;24.50;68.30;;;;;;5072180;28;20055;-61
2023/05/28 11:25:00;;;;;;;5.63;3.50;;;24.60;69.50;;;;;;5071479;28;20040;-63
2023/05/28 11:27:31;;;;;;;6.72;3.75;;;24.70;67.70;;;;;;5071956;28;20066;-62
2023/05/28 11:29:59;;;;;;;7.00;4.18;;;24.80;69.70;;;;;;5071324;28;20124;-64
2023/05/28 11:32:27;;;;;;;8.02;3.95;;;24.90;68.30;;;;;;5071344;28;20028;-62
2023/05/28 11:34:54;;;;;;;5.97;3.60;;;24.60;66.00;;;;;;5072568;28;20111;-62
2023/05/28 11:37:25;;;;;;;6.35;3.80;;;24.40;66.30;;;;;;5071141;28;20072;-62
2023/05/28 11:39:53;;;;;;;6.93;4.45;;;24.30;67.00;;;;;;5071908;28;20036;-63
2023/05/28 11:42:20;;;;;;;4.93;3.63;;;24.20;66.30;;;;;;5069840;28;20430;-62
2023/05/28 11:44:47;;;;;;;4.70;3.38;;;24.20;66.90;;;;;;5053399;28;20471;-63
2023/05/28 11:47:14;;;;;;;7.05;3.30;;;24.00;64.70;;;;;;5071793;28;20480;-63
2023/05/28 11:49:40;;;;;;;7.68;3.67;;;23.90;65.20;;;;;;5070709;28;20109;-62
2023/05/28 11:52:11;;;;;;;6.20;3.72;;;23.70;64.60;;;;;;5053836;28;20376;-62
2023/05/28 11:54:38;;;;;;;6.38;3.20;;;23.60;63.50;;;;;;5072117;28;20032;-61
2023/05/28 11:57:05;;;;;;;5.22;3.50;;;23.70;65.10;;;;;;5070409;28;20405;-64
2023/05/28 11:59:32;;;;;;;7.07;4.45;;;23.80;64.80;;;;;;5070789;28;20044;-63
2023/05/28 12:02:15;;;;;;;5.32;3.67;;;23.50;63.00;;;;;;5071503;28;20514;-63
2023/05/28 12:04:57;;;;;;;5.50;3.70;;;23.40;62.00;;;;;;5070292;28;20032;-62
2023/05/28 12:07:31;;;;;;;7.03;3.67;;;23.50;61.60;;;;;;5071821;28;20039;-62
2023/05/28 12:10:11;;;;;;;5.97;4.72;;;23.40;63.70;;;;;;5069963;28;20040;-65
2023/05/28 12:12:45;;;;;;;5.55;3.50;;;23.40;60.70;;;;;;5071888;28;20090;-63
2023/05/28 12:15:12;;;;;;;5.55;3.33;;;23.40;61.60;;;;;;5053329;28;20479;-62
2023/05/28 12:17:39;;;;;;;4.40;3.78;;;23.30;61.80;;;;;;5071475;28;20107;-62
2023/05/28 12:20:12;;;;;;;6.43;4.40;;;23.10;61.00;;;;;;5069837;28;20054;-63
2023/05/28 12:22:38;;;;;;;8.73;4.35;;;23.10;60.70;;;;;;5071481;28;20419;-64
2023/05/28 12:25:06;;;;;;;5.93;4.75;;;22.80;59.20;;;;;;5071236;28;20119;-66
2023/05/28 12:27:32;;;;;;;6.55;4.07;;;22.80;59.50;;;;;;5071443;28;20032;-62
2023/05/28 12:29:58;;;;;;;5.43;4.20;;;22.70;59.90;;;;;;5071623;28;20380;-63
2023/05/28 12:32:24;;;;;;;7.00;4.20;;;22.70;58.80;;;;;;5070677;28;20041;-63
2023/05/28 12:34:51;;;;;;;5.07;3.97;;;22.70;58.30;;;;;;5071625;28;20501;-62
2023/05/28 12:37:18;;;;;;;5.43;4.10;;;22.70;58.20;;;;;;5069500;28;20141;-61